Lufkin, TX

5:57 AM CST on December 27, 2014 (GMT -0600)
Brookhollow | Change Station
CLOSE
Current Station
Personal Weather Station
Location: Lufkin, TX
Elevation: 299 ft
Nearby Weather Stations

Elev 299 ft 31.31 °N, 94.76 °W | Updated 3 minutes ago

Fog
Fog
62.2 °F
Feels Like 62.2 °F
N
2.7
Wind Variable Wind from South

Today
High -- | Low -- °F
--% Chance of Precip.
Yesterday
High -- | Low -- °F
Precip. -- in
7:16 AM 5:23 PM
Waxing Crescent, 36% visible
Pressure 29.99 in
Visibility 0.8 miles
Clouds
Dew Point 62 °F
Humidity 99%
Rainfall 0.00 in
Snow Depth Not available.
UV Not available.
Pollen 3.50 out of 12
Air Quality Not available.
Flu Activity Not available.
SPECI KLFK 271148Z AUTO 10008KT 3/4SM BR VV002 18/17 A2999 RMK AO2 RAE00 $

More Conditions Fewer Conditions

Pressure 29.99 in
Visibility 0.8 miles
Clouds
Dew Point 62 °F
Humidity 99%
Rainfall 0.00 in
Snow Depth Not available.
UV Not available.
Pollen 3.50 out of 12
Air Quality Not available.
Flu Activity Not available.
SPECI KLFK 271148Z AUTO 10008KT 3/4SM BR VV002 18/17 A2999 RMK AO2 RAE00 $

More Conditions Fewer Conditions

10-Day Weather Forecast

Almanac

Astronomy

Dec. 27, 2014 Rise Set
Actual Time
Civil Twilight
Nautical Twilight
Astronomical Twilight
Moon
Length of Visible Light
Length of Day
Tomorrow will be .
, % of the Moon is Illuminated

Today's Extremes

State Highs State Lows

Community

WunderPhotos

Upload Photos

1,780,885 photos uploaded!

WunderBlogs® & News

Nearby

Air Quality

  Air Quality AQ Index Pollutant
Not available.

Snow Depth

Station Depth Elevation

Earthquake Activity

City Distance Mag. Time & Date
Minimum magnitude displayed is 2.5.

Coastal Water Temperatures

Place Temperature

Nearby Weather Stations